createdAt,value
2023-02-25T00:00:57.691Z,98836.19
2023-02-25T00:03:25.925Z,98835.59
2023-02-25T00:05:54.195Z,98847.72
2023-02-25T00:08:22.307Z,98835.00
2023-02-25T00:10:59.054Z,98843.56
2023-02-25T00:13:27.304Z,98841.84
2023-02-25T00:15:58.295Z,98844.59
2023-02-25T00:18:26.692Z,98847.16
2023-02-25T00:20:54.859Z,98842.22
2023-02-25T00:23:23.030Z,98843.16
2023-02-25T00:25:51.253Z,98841.47
2023-02-25T00:28:19.457Z,98845.75
2023-02-25T00:30:49.490Z,98850.13
2023-02-25T00:33:19.041Z,98856.16
2023-02-25T00:35:47.964Z,98855.38
2023-02-25T00:38:16.406Z,98854.59
2023-02-25T00:40:47.099Z,98849.59
2023-02-25T00:43:15.245Z,98852.25
2023-02-25T00:45:43.411Z,98862.47
2023-02-25T00:48:11.555Z,98862.53
2023-02-25T00:50:41.182Z,98860.88
2023-02-25T00:53:09.305Z,98862.53
2023-02-25T00:55:37.562Z,98868.56
2023-02-25T00:58:05.766Z,98869.38
2023-02-25T01:00:46.584Z,98868.56
2023-02-25T01:03:18.423Z,98879.63
2023-02-25T01:05:49.531Z,98878.03
2023-02-25T01:08:18.603Z,98883.97
2023-02-25T01:10:47.263Z,98881.34
2023-02-25T01:13:15.960Z,98889.22
2023-02-25T01:15:44.682Z,98889.28
2023-02-25T01:18:13.214Z,98887.75
2023-02-25T01:20:41.604Z,98887.94
2023-02-25T01:23:11.300Z,98882.16
2023-02-25T01:25:41.163Z,98877.25
2023-02-25T01:28:09.342Z,98877.25
2023-02-25T01:30:38.381Z,98867.06
2023-02-25T01:33:06.642Z,98865.13
2023-02-25T01:35:37.355Z,98870.19
2023-02-25T01:38:05.514Z,98871.81
2023-02-25T01:40:35.143Z,98864.19
2023-02-25T01:43:03.374Z,98865.09
2023-02-25T01:45:32.798Z,98875.44
2023-02-25T01:48:11.196Z,98874.69
2023-02-25T01:50:44.891Z,98874.41
2023-02-25T01:53:13.993Z,98872.63
2023-02-25T01:55:43.448Z,98875.84
2023-02-25T01:58:11.808Z,98877.34
2023-02-25T02:00:40.218Z,98879.88
2023-02-25T02:03:16.186Z,98885.69
2023-02-25T02:05:54.100Z,98883.25
2023-02-25T02:08:23.142Z,98879.69
2023-02-25T02:10:52.704Z,98872.72
2023-02-25T02:13:20.860Z,98878.81
2023-02-25T02:16:06.485Z,98872.25
2023-02-25T02:18:36.325Z,98872.38
2023-02-25T02:21:15.326Z,98871.66
2023-02-25T02:24:10.983Z,98880.44
2023-02-25T02:26:55.091Z,98885.41
2023-02-25T02:30:17.873Z,98888.81
2023-02-25T02:32:49.525Z,98892.22
2023-02-25T02:35:21.956Z,98889.38
2023-02-25T02:37:59.733Z,98893.50
2023-02-25T02:40:42.367Z,98889.03
2023-02-25T02:43:19.365Z,98886.53
2023-02-25T02:45:50.605Z,98881.41
2023-02-25T02:48:22.228Z,98894.16
2023-02-25T02:50:53.497Z,98882.13
2023-02-25T02:53:25.970Z,98887.09
2023-02-25T02:55:57.828Z,98890.53
2023-02-25T02:58:28.896Z,98894.84
2023-02-25T03:01:00.279Z,98894.03
2023-02-25T03:03:37.083Z,98892.59
2023-02-25T03:06:10.210Z,98903.53
2023-02-25T03:08:44.581Z,98898.50
2023-02-25T03:11:13.593Z,98899.38
2023-02-25T03:13:41.820Z,98907.16
2023-02-25T03:16:14.160Z,98901.06
2023-02-25T03:18:48.893Z,98904.25
2023-02-25T03:21:20.618Z,98905.91
2023-02-25T03:23:48.777Z,98899.13
2023-02-25T03:26:23.234Z,98909.56
2023-02-25T03:28:55.497Z,98907.97
2023-02-25T03:31:25.921Z,98909.84
2023-02-25T03:33:58.402Z,98917.66
2023-02-25T03:36:29.593Z,98914.16
2023-02-25T03:39:01.826Z,98912.31
2023-02-25T03:41:35.283Z,98918.97
2023-02-25T03:44:05.177Z,98917.81
2023-02-25T03:46:34.746Z,98919.28
2023-02-25T03:49:04.993Z,98919.22
2023-02-25T03:51:36.424Z,98900.69
2023-02-25T03:54:05.030Z,98914.34
2023-02-25T03:56:43.343Z,98919.66
2023-02-25T03:59:11.545Z,98913.97
2023-02-25T04:01:41.001Z,98917.47
2023-02-25T04:04:11.969Z,98920.09
2023-02-25T04:06:40.740Z,98928.69
2023-02-25T04:09:09.307Z,98925.22
2023-02-25T04:11:37.453Z,98926.75
2023-02-25T04:14:05.590Z,98929.06
2023-02-25T04:16:33.853Z,98939.97
2023-02-25T04:19:03.283Z,98941.50
2023-02-25T04:21:35.350Z,98937.00
2023-02-25T04:24:03.874Z,98929.22
2023-02-25T04:26:32.145Z,98941.00
2023-02-25T04:29:00.373Z,98938.31
2023-02-25T04:31:28.739Z,98944.97
2023-02-25T04:33:58.210Z,98944.06
2023-02-25T04:36:28.505Z,98940.56
2023-02-25T04:38:58.365Z,98946.44
2023-02-25T04:41:28.987Z,98949.84
2023-02-25T04:43:57.195Z,98949.84
2023-02-25T04:46:25.821Z,98946.38
2023-02-25T04:48:54.413Z,98946.38
2023-02-25T04:51:22.530Z,98948.06
2023-02-25T04:53:50.738Z,98948.06
2023-02-25T04:56:20.704Z,98947.19
2023-02-25T04:58:48.857Z,98943.81
2023-02-25T05:01:17.240Z,98949.84
2023-02-25T05:03:45.371Z,98954.19
2023-02-25T05:06:13.546Z,98947.53
2023-02-25T05:08:42.200Z,98950.97
2023-02-25T05:11:10.338Z,98936.66
2023-02-25T05:13:39.811Z,98932.47
2023-02-25T05:16:10.310Z,98936.84
2023-02-25T05:18:38.783Z,98941.22
2023-02-25T05:21:10.596Z,98930.19
2023-02-25T05:23:38.901Z,98933.56
2023-02-25T05:26:07.484Z,98934.41
2023-02-25T05:28:35.802Z,98933.63
2023-02-25T05:31:07.551Z,98937.91
2023-02-25T05:33:38.119Z,98937.09
2023-02-25T05:36:07.568Z,98937.91
2023-02-25T05:38:36.746Z,98942.28
2023-02-25T05:41:05.871Z,98944.97
2023-02-25T05:43:34.172Z,98942.66
2023-02-25T05:46:03.187Z,98944.44
2023-02-25T05:48:33.117Z,98947.81
2023-02-25T05:51:02.285Z,98947.13
2023-02-25T05:53:30.488Z,98953.06
2023-02-25T05:55:58.572Z,98954.81
2023-02-25T05:58:26.784Z,98943.72
2023-02-25T06:00:54.913Z,98942.84
2023-02-25T06:03:23.169Z,98935.22
2023-02-25T06:05:53.148Z,98943.66
2023-02-25T06:08:21.334Z,98941.88
2023-02-25T06:10:49.454Z,98946.03
2023-02-25T06:13:17.599Z,98941.63
2023-02-25T06:15:45.808Z,98944.13
2023-02-25T06:18:14.168Z,98950.72
2023-02-25T06:20:42.330Z,98947.19
2023-02-25T06:23:11.813Z,98946.38
2023-02-25T06:25:39.971Z,98949.81
2023-02-25T06:28:08.175Z,98955.03
2023-02-25T06:30:36.290Z,98957.69
2023-02-25T06:33:04.543Z,98960.25
2023-02-25T06:35:32.746Z,98962.81
2023-02-25T06:38:01.560Z,98958.66
2023-02-25T06:40:33.041Z,98959.84
2023-02-25T06:43:01.132Z,98968.47
2023-02-25T06:45:29.293Z,98973.72
2023-02-25T06:47:57.455Z,98975.53
2023-02-25T06:50:25.668Z,98979.88
2023-02-25T06:52:53.797Z,98982.38
2023-02-25T06:55:22.137Z,98987.41
2023-02-25T06:57:51.611Z,98979.88
2023-02-25T07:00:20.631Z,98996.19
2023-02-25T07:02:48.799Z,98994.44
2023-02-25T07:05:17.450Z,98997.81
2023-02-25T07:07:45.598Z,99000.34
2023-02-25T07:10:13.872Z,99006.22
2023-02-25T07:12:42.081Z,98996.78
2023-02-25T07:15:12.256Z,98994.22
2023-02-25T07:17:40.435Z,98999.31
2023-02-25T07:20:10.866Z,99008.78
2023-02-25T07:22:39.257Z,99005.31
2023-02-25T07:25:09.341Z,99012.13
2023-02-25T07:27:37.538Z,99018.13
2023-02-25T07:30:06.962Z,99011.41
2023-02-25T07:32:36.523Z,99017.44
2023-02-25T07:35:05.490Z,99012.41
2023-02-25T07:37:33.692Z,99014.19
2023-02-25T07:40:01.868Z,99006.59
2023-02-25T07:42:30.215Z,99016.00
2023-02-25T07:45:02.276Z,99010.81
2023-02-25T07:47:30.669Z,99020.16
2023-02-25T07:50:00.185Z,99020.94
2023-02-25T07:52:28.339Z,99024.31
2023-02-25T07:54:56.545Z,99025.09
2023-02-25T07:57:24.726Z,99019.06
2023-02-25T07:59:52.971Z,99024.97
2023-02-25T08:02:21.710Z,99019.03
2023-02-25T08:04:50.037Z,99024.97
2023-02-25T08:07:20.438Z,99023.25
2023-02-25T08:09:48.937Z,99021.59
2023-02-25T08:12:17.112Z,99022.47
2023-02-25T08:14:46.191Z,99030.09
2023-02-25T08:17:15.469Z,99022.38
2023-02-25T08:19:43.621Z,99018.06
2023-02-25T08:22:12.458Z,99019.75
2023-02-25T08:24:42.189Z,99021.44
2023-02-25T08:27:10.478Z,99024.00
2023-02-25T08:29:38.750Z,99031.59
2023-02-25T08:32:07.518Z,99018.91
2023-02-25T08:34:36.015Z,99021.22
2023-02-25T08:37:04.264Z,99023.66
2023-02-25T08:39:35.886Z,99026.97
2023-02-25T08:42:06.054Z,99014.97
2023-02-25T08:44:34.233Z,99013.19
2023-02-25T08:47:05.014Z,99013.13
2023-02-25T08:49:33.383Z,99015.56
2023-02-25T08:52:01.540Z,99014.53
2023-02-25T08:54:29.794Z,99019.63
2023-02-25T08:57:00.143Z,99017.06
2023-02-25T08:59:36.054Z,99022.22
2023-02-25T09:02:06.202Z,99020.44
2023-02-25T09:04:34.938Z,99022.94
2023-02-25T09:07:03.289Z,99029.72
2023-02-25T09:09:31.941Z,99020.31
2023-02-25T09:12:00.199Z,99024.59
2023-02-25T09:14:29.691Z,99024.50
2023-02-25T09:16:58.004Z,99026.97
2023-02-25T09:19:26.166Z,99033.78
2023-02-25T09:21:54.269Z,99038.94
2023-02-25T09:24:22.433Z,99032.34
2023-02-25T09:26:51.110Z,99029.97
2023-02-25T09:29:19.565Z,99038.69
2023-02-25T09:31:49.333Z,99041.25
2023-02-25T09:34:18.248Z,99031.75
2023-02-25T09:36:46.396Z,99032.50
2023-02-25T09:39:14.593Z,99032.41
2023-02-25T09:41:50.205Z,99029.03
2023-02-25T09:44:20.821Z,99031.41
2023-02-25T09:46:53.719Z,99039.59
2023-02-25T09:49:27.421Z,99027.56
2023-02-25T09:52:00.584Z,99027.47
2023-02-25T09:54:34.259Z,99023.75
2023-02-25T09:57:03.190Z,99026.06
2023-02-25T09:59:31.628Z,99021.44
2023-02-25T10:02:06.374Z,99027.97
2023-02-25T10:04:39.090Z,99014.78
2023-02-25T10:07:12.667Z,99023.94
2023-02-25T10:09:46.829Z,99020.00
2023-02-25T10:12:22.046Z,99020.94
2023-02-25T10:15:25.648Z,99009.28
2023-02-25T10:18:11.441Z,99018.03
2023-02-25T10:20:56.275Z,99018.28
2023-02-25T10:23:37.823Z,99026.94
2023-02-25T10:26:09.420Z,99009.09
2023-02-25T10:28:37.632Z,99019.34
2023-02-25T10:31:08.032Z,99011.72
2023-02-25T10:33:40.296Z,99014.84
2023-02-25T10:36:11.137Z,99013.69
2023-02-25T10:38:41.967Z,99014.41
2023-02-25T10:41:10.085Z,99011.69
2023-02-25T10:43:38.327Z,99016.06
2023-02-25T10:46:11.474Z,99015.16
2023-02-25T10:48:42.235Z,99005.75
2023-02-25T10:51:12.724Z,99007.34
2023-02-25T10:53:41.043Z,99000.56
2023-02-25T10:56:09.477Z,99004.78
2023-02-25T10:58:40.855Z,99009.97
2023-02-25T11:01:14.841Z,99002.22
2023-02-25T11:03:49.359Z,99012.59
2023-02-25T11:06:24.881Z,99003.75
2023-02-25T11:08:54.645Z,99007.09
2023-02-25T11:11:24.257Z,99012.88
2023-02-25T11:14:02.175Z,99010.22
2023-02-25T11:16:31.197Z,99000.03
2023-02-25T11:19:02.532Z,99015.22
2023-02-25T11:21:34.120Z,99021.06
2023-02-25T11:24:05.851Z,99024.13
2023-02-25T11:26:35.431Z,99017.56
2023-02-25T11:29:07.640Z,99006.50
2023-02-25T11:31:38.115Z,99015.56
2023-02-25T11:34:13.954Z,99011.19
2023-02-25T11:36:42.220Z,99011.28
2023-02-25T11:39:19.850Z,99006.09
2023-02-25T11:41:49.594Z,99008.56
2023-02-25T11:44:30.186Z,99001.13
2023-02-25T11:47:03.035Z,98984.31
2023-02-25T11:49:45.587Z,98981.41
2023-02-25T11:52:18.021Z,98996.13
2023-02-25T11:54:54.016Z,98997.03
2023-02-25T11:57:28.384Z,98991.97
2023-02-25T12:00:02.129Z,98993.75
2023-02-25T12:02:47.802Z,98989.06
2023-02-25T12:05:51.933Z,98986.50
2023-02-25T12:09:14.195Z,98968.09
2023-02-25T12:12:18.954Z,98971.63
2023-02-25T12:15:47.630Z,98966.66
2023-02-25T12:19:11.427Z,98968.31
2023-02-25T12:22:15.275Z,98967.84
2023-02-25T12:24:56.969Z,98952.16
2023-02-25T12:27:44.646Z,98964.94
2023-02-25T12:31:00.810Z,98956.53
2023-02-25T12:33:44.492Z,98942.47
2023-02-25T12:36:35.746Z,98932.34
2023-02-25T12:39:46.543Z,98944.97
2023-02-25T12:42:46.161Z,98940.66
2023-02-25T12:45:34.643Z,98942.78
2023-02-25T12:48:21.097Z,98955.25
2023-02-25T12:51:17.249Z,98951.25
2023-02-25T12:53:51.724Z,98957.28
2023-02-25T12:56:59.338Z,98946.34
2023-02-25T12:59:56.407Z,98954.41
2023-02-25T13:02:38.332Z,98952.75
2023-02-25T13:05:29.513Z,98950.13
2023-02-25T13:08:17.629Z,98945.88
2023-02-25T13:10:58.159Z,98950.25
2023-02-25T13:14:04.876Z,98953.03
2023-02-25T13:16:53.732Z,98941.13
2023-02-25T13:19:57.565Z,98947.09
2023-02-25T13:22:41.133Z,98958.34
2023-02-25T13:25:15.448Z,99004.69
2023-02-25T13:27:57.126Z,99008.56
2023-02-25T13:30:32.073Z,99008.75
2023-02-25T13:33:29.170Z,98998.13
2023-02-25T13:36:02.546Z,98985.56
2023-02-25T13:38:41.704Z,99004.41
2023-02-25T13:41:42.812Z,98994.56
2023-02-25T13:44:28.613Z,98990.50
2023-02-25T13:47:16.900Z,98986.34
2023-02-25T13:50:35.878Z,98991.72
2023-02-25T13:53:33.140Z,98988.28
2023-02-25T13:56:33.805Z,98973.59
2023-02-25T13:59:13.098Z,98987.50
2023-02-25T14:02:04.847Z,98982.31
2023-02-25T14:05:17.642Z,98985.19
2023-02-25T14:08:00.849Z,98986.56
2023-02-25T14:10:41.822Z,98978.38
2023-02-25T14:13:45.801Z,98961.78
2023-02-25T14:16:29.937Z,98978.31
2023-02-25T14:19:33.924Z,98984.47
2023-02-25T14:22:26.887Z,98992.94
2023-02-25T14:25:03.799Z,98984.88
2023-02-25T14:27:38.987Z,98968.75
2023-02-25T14:30:18.715Z,98983.28
2023-02-25T14:33:01.562Z,98984.19
2023-02-25T14:35:56.771Z,98979.81
2023-02-25T14:38:33.622Z,98980.53
2023-02-25T14:41:14.049Z,98982.56
2023-02-25T14:43:42.582Z,98975.28
2023-02-25T14:46:19.879Z,98984.03
2023-02-25T14:48:50.118Z,98968.34
2023-02-25T14:51:47.153Z,98975.84
2023-02-25T14:54:48.181Z,98991.84
2023-02-25T14:57:43.104Z,98987.38
2023-02-25T15:00:26.434Z,98995.31
2023-02-25T15:03:04.304Z,98997.09
2023-02-25T15:05:51.130Z,98994.53
2023-02-25T15:08:59.772Z,99004.91
2023-02-25T15:12:10.400Z,99000.50
2023-02-25T15:15:11.436Z,99010.97
2023-02-25T15:18:28.090Z,99007.00
2023-02-25T15:20:56.940Z,99008.69
2023-02-25T15:23:42.931Z,99013.38
2023-02-25T15:26:23.541Z,99013.97
2023-02-25T15:28:52.369Z,99013.22
2023-02-25T15:31:30.331Z,99014.53
2023-02-25T15:34:38.452Z,99024.81
2023-02-25T15:37:30.678Z,99033.63
2023-02-25T15:40:00.574Z,99040.28
2023-02-25T15:42:47.909Z,99060.50
2023-02-25T15:45:39.267Z,99098.38
2023-02-25T15:48:36.059Z,99131.66
2023-02-25T15:51:06.318Z,99124.66
2023-02-25T15:53:48.969Z,99120.66
2023-02-25T15:56:49.857Z,99143.63
2023-02-25T15:59:45.502Z,99142.28
2023-02-25T16:02:42.208Z,99154.53
2023-02-25T16:05:28.701Z,99154.41
2023-02-25T16:08:08.127Z,99142.28
2023-02-25T16:10:39.555Z,99137.69
2023-02-25T16:13:07.657Z,99137.41
2023-02-25T16:15:40.782Z,99146.25
2023-02-25T16:18:15.447Z,99150.69
2023-02-25T16:20:46.632Z,99148.16
2023-02-25T16:23:14.964Z,99161.72
2023-02-25T16:25:48.225Z,99160.06
2023-02-25T16:28:21.054Z,99164.50
2023-02-25T16:30:55.204Z,99166.28
2023-02-25T16:33:26.423Z,99167.22
2023-02-25T16:36:06.854Z,99170.13
2023-02-25T16:38:42.376Z,99175.38
2023-02-25T16:41:10.538Z,99183.31
2023-02-25T16:43:39.197Z,99181.06
2023-02-25T16:46:10.449Z,99187.06
2023-02-25T16:48:39.426Z,99188.13
2023-02-25T16:51:11.548Z,99190.78
2023-02-25T16:53:44.721Z,99190.84
2023-02-25T16:56:19.848Z,99208.84
2023-02-25T16:59:00.981Z,99216.66
2023-02-25T17:01:31.476Z,99220.22
2023-02-25T17:04:09.487Z,99224.63
2023-02-25T17:06:38.198Z,99230.66
2023-02-25T17:09:06.318Z,99231.69
2023-02-25T17:11:34.512Z,99230.25
2023-02-25T17:14:03.961Z,99236.25
2023-02-25T17:16:39.052Z,99239.84
2023-02-25T17:19:08.719Z,99250.31
2023-02-25T17:21:37.784Z,99244.56
2023-02-25T17:24:08.076Z,99250.69
2023-02-25T17:26:36.246Z,99253.38
2023-02-25T17:29:04.437Z,99250.16
2023-02-25T17:31:37.753Z,99250.25
2023-02-25T17:34:14.135Z,99266.44
2023-02-25T17:36:42.523Z,99268.25
2023-02-25T17:39:14.605Z,99288.59
2023-02-25T17:41:43.042Z,99281.75
2023-02-25T17:44:11.537Z,99278.41
2023-02-25T17:46:44.510Z,99297.00
2023-02-25T17:49:21.235Z,99291.97
2023-02-25T17:51:53.837Z,99305.44
2023-02-25T17:54:23.273Z,99304.59
2023-02-25T17:56:56.813Z,99300.34
2023-02-25T17:59:38.876Z,99304.66
2023-02-25T18:02:30.387Z,99310.72
2023-02-25T18:05:24.626Z,99309.13
2023-02-25T18:08:18.660Z,99314.34
2023-02-25T18:10:49.260Z,99318.72
2023-02-25T18:13:25.202Z,99331.50
2023-02-25T18:16:23.943Z,99329.84
2023-02-25T18:18:53.756Z,99324.72
2023-02-25T18:21:22.020Z,99326.38
2023-02-25T18:23:51.051Z,99339.94
2023-02-25T18:26:21.267Z,99345.03
2023-02-25T18:28:49.413Z,99345.13
2023-02-25T18:31:19.469Z,99353.59
2023-02-25T18:33:48.294Z,99339.16
2023-02-25T18:36:23.404Z,99355.34
2023-02-25T18:38:52.459Z,99365.53
2023-02-25T18:41:20.705Z,99351.97
2023-02-25T18:43:48.887Z,99372.38
2023-02-25T18:46:17.151Z,99370.69
2023-02-25T18:48:45.372Z,99375.78
2023-02-25T18:51:14.519Z,99375.88
2023-02-25T18:53:44.218Z,99380.88
2023-02-25T18:56:13.836Z,99391.09
2023-02-25T18:58:42.788Z,99394.56
2023-02-25T19:01:18.738Z,99390.47
2023-02-25T19:03:46.870Z,99402.44
2023-02-25T19:06:15.164Z,99402.53
2023-02-25T19:08:44.722Z,99407.69
2023-02-25T19:11:15.937Z,99413.66
2023-02-25T19:13:44.401Z,99412.00
2023-02-25T19:16:12.652Z,99412.88
2023-02-25T19:18:41.465Z,99410.38
2023-02-25T19:21:13.107Z,99422.28
2023-02-25T19:23:41.287Z,99419.78
2023-02-25T19:26:10.837Z,99421.59
2023-02-25T19:28:39.016Z,99427.66
2023-02-25T19:31:07.670Z,99432.84
2023-02-25T19:33:36.190Z,99427.88
2023-02-25T19:36:04.734Z,99428.00
2023-02-25T19:38:32.864Z,99434.06
2023-02-25T19:41:06.001Z,99435.78
2023-02-25T19:43:35.681Z,99440.06
2023-02-25T19:46:05.038Z,99446.09
2023-02-25T19:48:33.373Z,99452.13
2023-02-25T19:51:07.125Z,99469.22
2023-02-25T19:53:35.403Z,99469.25
2023-02-25T19:56:05.372Z,99475.25
2023-02-25T19:58:34.884Z,99479.59
2023-02-25T20:01:05.640Z,99477.13
2023-02-25T20:03:33.918Z,99481.34
2023-02-25T20:06:07.767Z,99489.88
2023-02-25T20:08:37.550Z,99495.81
2023-02-25T20:11:09.702Z,99500.97
2023-02-25T20:13:39.686Z,99503.53
2023-02-25T20:16:09.255Z,99495.97
2023-02-25T20:18:37.567Z,99500.28
2023-02-25T20:21:06.256Z,99509.69
2023-02-25T20:23:34.577Z,99506.34
2023-02-25T20:26:06.990Z,99493.63
2023-02-25T20:28:35.387Z,99508.97
2023-02-25T20:31:06.390Z,99504.75
2023-02-25T20:33:34.938Z,99510.75
2023-02-25T20:36:04.587Z,99510.78
2023-02-25T20:38:36.163Z,99515.06
2023-02-25T20:41:04.726Z,99512.44
2023-02-25T20:43:33.129Z,99519.19
2023-02-25T20:46:01.685Z,99519.22
2023-02-25T20:48:32.850Z,99509.94
2023-02-25T20:51:02.316Z,99526.84
2023-02-25T20:53:31.146Z,99530.31
2023-02-25T20:55:59.293Z,99535.41
2023-02-25T20:58:27.584Z,99540.50
2023-02-25T21:00:55.746Z,99549.88
2023-02-25T21:03:23.956Z,99537.19
2023-02-25T21:05:53.498Z,99540.66
2023-02-25T21:08:21.680Z,99541.50
2023-02-25T21:10:49.868Z,99552.56
2023-02-25T21:13:18.057Z,99549.19
2023-02-25T21:15:46.199Z,99548.38
2023-02-25T21:18:14.464Z,99553.47
2023-02-25T21:20:42.605Z,99563.66
2023-02-25T21:23:12.106Z,99558.63
2023-02-25T21:25:40.301Z,99565.44
2023-02-25T21:28:08.512Z,99562.97
2023-02-25T21:30:36.822Z,99563.88
2023-02-25T21:33:07.345Z,99565.53
2023-02-25T21:35:36.574Z,99563.03
2023-02-25T21:38:04.692Z,99569.81
2023-02-25T21:40:34.255Z,99565.59
2023-02-25T21:43:02.548Z,99574.16
2023-02-25T21:45:30.851Z,99570.00
2023-02-25T21:47:58.984Z,99566.63
2023-02-25T21:50:27.210Z,99567.50
2023-02-25T21:52:56.376Z,99565.00
2023-02-25T21:55:25.425Z,99569.31
2023-02-25T21:57:54.927Z,99566.81
2023-02-25T22:00:24.150Z,99562.66
2023-02-25T22:02:52.591Z,99572.00
2023-02-25T22:05:21.228Z,99569.47
2023-02-25T22:07:49.408Z,99574.63
2023-02-25T22:10:18.060Z,99578.88
2023-02-25T22:12:46.360Z,99587.41
2023-02-25T22:15:15.859Z,99587.41
2023-02-25T22:17:43.972Z,99595.09
2023-02-25T22:20:13.242Z,99595.09
2023-02-25T22:22:41.381Z,99595.09
2023-02-25T22:25:09.935Z,99595.16
2023-02-25T22:27:38.140Z,99600.28
2023-02-25T22:30:08.781Z,99596.94
2023-02-25T22:32:38.513Z,99596.09
2023-02-25T22:35:08.138Z,99588.50
2023-02-25T22:37:36.350Z,99598.66
2023-02-25T22:40:05.029Z,99597.00
2023-02-25T22:42:33.207Z,99590.25
2023-02-25T22:45:01.413Z,99602.91
2023-02-25T22:47:29.539Z,99598.66
2023-02-25T22:49:59.114Z,99597.00
2023-02-25T22:52:27.306Z,99606.34
2023-02-25T22:54:55.439Z,99604.66
2023-02-25T22:57:23.780Z,99605.50
2023-02-25T22:59:52.010Z,99603.84
2023-02-25T23:02:20.174Z,99600.47
2023-02-25T23:04:48.405Z,99606.41
2023-02-25T23:07:17.984Z,99608.94
2023-02-25T23:09:46.247Z,99608.09
2023-02-25T23:12:14.476Z,99608.06
2023-02-25T23:14:43.259Z,99616.56
2023-02-25T23:17:11.439Z,99614.84
2023-02-25T23:19:40.158Z,99622.47
2023-02-25T23:22:09.622Z,99619.09
2023-02-25T23:24:39.181Z,99625.88
2023-02-25T23:27:07.774Z,99626.72
2023-02-25T23:29:36.257Z,99637.75
2023-02-25T23:32:04.757Z,99621.75
2023-02-25T23:34:32.913Z,99627.66
2023-02-25T23:37:01.078Z,99632.78
2023-02-25T23:39:29.235Z,99629.44
2023-02-25T23:41:58.729Z,99628.59
2023-02-25T23:44:27.581Z,99631.97
2023-02-25T23:46:55.796Z,99634.56
2023-02-25T23:49:23.959Z,99626.13
2023-02-25T23:51:52.129Z,99629.53
2023-02-25T23:54:21.883Z,99629.59
2023-02-25T23:56:50.420Z,99622.84
2023-02-25T23:59:19.931Z,99630.44
